Time;durP1;ratioP1;P1;durP2;ratioP2;P2;SDS_P1;SDS_P2;PMS_P1;PMS_P2;Temp;Humidity;BMP_temperature;BMP_pressure;BME280_temperature;BME280_humidity;BME280_pressure;Samples;Min_cycle;Max_cycle;Signal;HPM_P1;HPM_P2
2022/05/08 00:02:07;;;;;;;11.95;7.20;;;24.00;52.70;;;;;;6282987;27;80561;-65
2022/05/08 00:05:08;;;;;;;10.80;7.35;;;23.90;52.60;;;;;;6282727;27;80420;-65
2022/05/08 00:08:08;;;;;;;12.27;8.00;;;24.00;52.60;;;;;;6281783;27;80554;-65
2022/05/08 00:11:09;;;;;;;14.25;7.70;;;24.00;52.50;;;;;;6280968;27;80611;-65
2022/05/08 00:14:09;;;;;;;11.25;7.65;;;24.00;52.50;;;;;;6283212;27;80232;-65
2022/05/08 00:17:13;;;;;;;14.98;8.52;;;24.00;52.50;;;;;;6282956;27;80293;-65
2022/05/08 00:20:13;;;;;;;13.35;7.75;;;24.00;52.50;;;;;;6282772;27;80552;-64
2022/05/08 00:23:14;;;;;;;12.32;8.25;;;24.00;52.40;;;;;;6278623;27;81133;-66
2022/05/08 00:26:18;;;;;;;15.80;8.45;;;24.00;52.40;;;;;;6277885;27;80550;-66
2022/05/08 00:29:18;;;;;;;12.23;8.43;;;24.00;52.50;;;;;;6282901;27;80365;-66
2022/05/08 00:32:20;;;;;;;12.98;8.48;;;23.90;52.40;;;;;;6287106;27;81624;-66
2022/05/08 00:35:21;;;;;;;13.95;7.85;;;23.90;52.40;;;;;;6271657;27;80597;-64
2022/05/08 00:38:21;;;;;;;12.70;7.95;;;24.00;52.50;;;;;;6287234;27;81459;-64
2022/05/08 00:41:22;;;;;;;14.68;8.57;;;23.90;52.40;;;;;;6287356;27;81783;-65
2022/05/08 00:44:22;;;;;;;10.52;7.78;;;23.90;52.50;;;;;;6287714;27;80893;-64
2022/05/08 00:47:23;;;;;;;11.70;8.20;;;23.90;52.40;;;;;;6287267;27;80697;-64
2022/05/08 00:50:24;;;;;;;11.95;7.95;;;24.00;52.50;;;;;;6283138;27;81199;-65
2022/05/08 00:53:25;;;;;;;14.73;7.78;;;24.00;52.50;;;;;;6287300;27;80292;-66
2022/05/08 00:56:25;;;;;;;14.32;8.25;;;23.90;52.40;;;;;;6287280;27;80318;-66
2022/05/08 00:59:26;;;;;;;15.02;8.80;;;23.90;52.50;;;;;;6287035;27;80848;-66
2022/05/08 01:02:26;;;;;;;12.45;7.97;;;24.00;52.60;;;;;;6287289;27;80498;-66
2022/05/08 01:05:27;;;;;;;16.00;9.05;;;24.00;52.50;;;;;;6264864;27;87683;-66
2022/05/08 01:08:30;;;;;;;14.35;8.75;;;24.00;52.50;;;;;;6280098;27;80389;-66
2022/05/08 01:11:31;;;;;;;15.40;8.38;;;24.00;52.50;;;;;;6286253;27;81669;-65
2022/05/08 01:14:31;;;;;;;12.95;8.35;;;23.90;52.40;;;;;;6286845;27;80501;-66
2022/05/08 01:17:32;;;;;;;13.50;8.90;;;24.00;52.50;;;;;;6281114;27;80366;-66
2022/05/08 01:20:32;;;;;;;13.63;8.88;;;23.90;52.40;;;;;;6286168;27;80635;-66
2022/05/08 01:23:33;;;;;;;14.93;9.40;;;23.90;52.40;;;;;;6286841;27;80224;-66
2022/05/08 01:26:33;;;;;;;20.77;9.68;;;23.90;52.40;;;;;;6286647;27;81626;-66
2022/05/08 01:29:34;;;;;;;18.15;8.82;;;23.90;52.30;;;;;;6284771;27;80368;-66
2022/05/08 01:32:34;;;;;;;15.98;8.30;;;23.90;52.40;;;;;;6278847;27;80978;-66
2022/05/08 01:35:35;;;;;;;15.80;9.07;;;23.90;52.40;;;;;;6285976;27;80405;-67
2022/05/08 01:38:36;;;;;;;14.88;9.18;;;23.90;52.40;;;;;;6285702;27;81742;-64
2022/05/08 01:41:36;;;;;;;15.65;9.40;;;23.90;52.40;;;;;;6285056;27;81566;-66
2022/05/08 01:44:37;;;;;;;14.10;8.75;;;23.90;52.40;;;;;;6285858;27;80738;-66
2022/05/08 01:50:56;;;;;;;17.80;9.82;;;23.90;52.40;;;;;;6285593;27;81362;-66
2022/05/08 01:53:57;;;;;;;15.02;8.98;;;23.90;52.40;;;;;;6285311;27;80365;-66
2022/05/08 01:56:58;;;;;;;15.38;9.57;;;23.90;52.40;;;;;;6286266;27;80487;-66
2022/05/08 01:59:59;;;;;;;14.65;9.13;;;23.90;52.30;;;;;;6279625;27;80748;-67
2022/05/08 02:02:59;;;;;;;15.82;8.88;;;23.90;52.40;;;;;;6284010;27;80571;-66
2022/05/08 02:06:00;;;;;;;15.60;9.82;;;23.90;52.40;;;;;;6285446;27;80199;-66
2022/05/08 02:09:00;;;;;;;13.30;9.52;;;23.90;52.40;;;;;;6285203;27;81038;-66
2022/05/08 02:12:01;;;;;;;15.32;8.98;;;23.90;52.40;;;;;;6284768;27;80356;-66
2022/05/08 02:15:01;;;;;;;13.48;9.48;;;23.90;52.50;;;;;;6285090;27;80647;-67
2022/05/08 02:18:02;;;;;;;18.33;9.95;;;23.90;52.40;;;;;;6285444;27;81350;-66
2022/05/08 02:21:02;;;;;;;19.05;9.75;;;23.90;52.40;;;;;;6285691;27;81438;-66
2022/05/08 02:24:03;;;;;;;16.60;9.35;;;23.90;52.50;;;;;;6285218;27;80540;-66
2022/05/08 02:27:03;;;;;;;15.80;10.45;;;23.90;52.50;;;;;;6285223;27;87727;-66
2022/05/08 02:30:04;;;;;;;14.75;9.82;;;23.90;53.10;;;;;;6268154;27;82857;-64
2022/05/08 02:33:05;;;;;;;14.13;9.40;;;23.90;52.40;;;;;;6284868;27;83049;-64
2022/05/08 02:36:06;;;;;;;17.02;9.68;;;23.90;52.40;;;;;;6283780;27;80915;-64
2022/05/08 02:39:07;;;;;;;15.70;10.00;;;23.90;52.40;;;;;;6284922;27;80314;-63
2022/05/08 02:42:07;;;;;;;15.95;10.13;;;23.90;52.40;;;;;;6281322;27;82984;-64
2022/05/08 02:45:11;;;;;;;15.40;9.55;;;23.90;52.50;;;;;;6281285;27;83130;-64
2022/05/08 02:48:15;;;;;;;28.23;9.90;;;23.90;52.50;;;;;;6284072;27;88460;-64
2022/05/08 02:51:15;;;;;;;13.60;8.73;;;23.90;52.40;;;;;;6283718;27;80573;-63
2022/05/08 02:54:16;;;;;;;16.50;9.85;;;23.90;52.60;;;;;;6283893;27;81106;-64
2022/05/08 03:00:35;;;;;;;15.48;9.07;;;23.90;52.60;;;;;;6284128;27;80487;-64
2022/05/08 03:03:36;;;;;;;15.55;9.18;;;23.90;52.50;;;;;;6283862;27;80454;-63
2022/05/08 03:06:38;;;;;;;15.10;9.02;;;23.90;52.50;;;;;;6284096;27;80686;-64
2022/05/08 03:09:38;;;;;;;14.05;8.98;;;23.90;52.50;;;;;;6282122;27;84268;-64
2022/05/08 03:12:39;;;;;;;14.48;8.93;;;23.90;52.60;;;;;;6284309;27;80565;-64
2022/05/08 03:15:40;;;;;;;13.15;8.52;;;23.90;52.60;;;;;;6283904;27;80447;-64
2022/05/08 03:18:44;;;;;;;18.35;9.70;;;23.90;52.50;;;;;;6283741;27;80557;-65
2022/05/08 03:21:48;;;;;;;13.50;9.00;;;23.90;52.60;;;;;;6283695;27;81037;-65
2022/05/08 03:24:49;;;;;;;15.32;9.05;;;23.90;52.60;;;;;;6273025;27;80476;-65
2022/05/08 03:27:49;;;;;;;15.18;9.43;;;23.90;52.60;;;;;;6280829;27;81261;-65
2022/05/08 03:30:49;;;;;;;14.52;8.95;;;23.90;52.50;;;;;;6283363;27;81605;-66
2022/05/08 03:33:50;;;;;;;13.63;8.85;;;23.80;52.40;;;;;;6269409;27;80453;-65
2022/05/08 03:36:51;;;;;;;15.75;9.07;;;23.80;52.50;;;;;;6283124;27;81638;-64
2022/05/08 03:39:51;;;;;;;13.88;8.95;;;23.80;52.40;;;;;;6280140;27;80480;-64
2022/05/08 03:42:55;;;;;;;14.23;9.00;;;23.80;52.30;;;;;;6283073;27;80618;-65
2022/05/08 03:45:57;;;;;;;14.50;8.57;;;23.70;52.20;;;;;;6283239;27;80643;-65
2022/05/08 03:48:57;;;;;;;12.20;8.75;;;23.70;52.30;;;;;;6283210;27;81140;-64
2022/05/08 03:51:58;;;;;;;13.98;8.25;;;23.70;52.40;;;;;;6282948;27;80809;-65
2022/05/08 03:54:59;;;;;;;14.73;8.95;;;23.70;52.40;;;;;;6283199;27;80571;-65
2022/05/08 03:58:00;;;;;;;17.55;9.27;;;23.70;52.50;;;;;;6282943;27;82148;-64
2022/05/08 04:01:00;;;;;;;16.10;9.55;;;23.70;52.50;;;;;;6280216;27;81367;-65
2022/05/08 04:04:02;;;;;;;13.15;8.13;;;23.70;52.50;;;;;;6281951;27;82319;-69
2022/05/08 04:07:03;;;;;;;14.45;8.07;;;23.70;52.40;;;;;;6277363;27;80490;-65
2022/05/08 04:10:03;;;;;;;13.88;9.25;;;23.70;52.40;;;;;;6282317;27;80450;-65
2022/05/08 04:13:04;;;;;;;17.23;9.35;;;23.70;52.40;;;;;;6272474;27;80430;-65
2022/05/08 04:16:17;;;;;;;18.52;8.52;;;23.70;52.40;;;;;;6265023;27;81625;-64
2022/05/08 04:19:17;;;;;;;13.77;8.50;;;23.70;52.20;;;;;;6265503;27;80393;-65
2022/05/08 04:25:38;;;;;;;14.18;8.25;;;23.70;52.00;;;;;;6267272;27;80632;-66
2022/05/08 04:28:38;;;;;;;10.98;7.80;;;23.70;52.10;;;;;;6262142;27;80756;-64
2022/05/08 04:31:39;;;;;;;14.07;8.15;;;23.70;52.30;;;;;;6262941;27;83184;-63
2022/05/08 04:34:39;;;;;;;15.90;9.40;;;23.70;52.50;;;;;;6265535;27;80310;-64
2022/05/08 04:37:40;;;;;;;15.52;8.77;;;23.70;52.60;;;;;;6274678;27;80850;-66
2022/05/08 04:40:41;;;;;;;14.10;8.23;;;23.80;52.30;;;;;;6281188;27;81757;-65
2022/05/08 04:43:41;;;;;;;12.80;8.05;;;23.80;52.20;;;;;;6282990;27;80450;-65
2022/05/08 04:46:42;;;;;;;12.88;8.18;;;23.80;52.20;;;;;;6282741;27;80324;-64
2022/05/08 04:49:42;;;;;;;13.23;9.02;;;23.80;52.00;;;;;;6278717;27;80780;-65
2022/05/08 04:52:43;;;;;;;15.30;7.38;;;23.90;52.10;;;;;;6282242;27;81620;-64
2022/05/08 04:55:43;;;;;;;15.70;7.47;;;23.90;52.60;;;;;;6282265;27;80788;-64
2022/05/08 04:58:44;;;;;;;11.60;7.43;;;23.90;53.00;;;;;;6282693;27;80554;-65
2022/05/08 05:01:44;;;;;;;13.30;6.82;;;23.90;53.10;;;;;;6277412;27;80743;-64
2022/05/08 05:04:45;;;;;;;9.75;6.90;;;24.00;53.20;;;;;;6274898;27;81354;-62
2022/05/08 05:07:46;;;;;;;13.40;7.03;;;24.00;53.70;;;;;;6273830;27;80342;-62
2022/05/08 05:10:46;;;;;;;9.13;6.35;;;24.10;53.50;;;;;;6279936;27;82116;-62
2022/05/08 05:13:47;;;;;;;12.73;6.43;;;24.10;53.40;;;;;;6280355;27;82239;-62
2022/05/08 05:16:48;;;;;;;11.25;6.93;;;24.10;53.30;;;;;;6285100;27;80331;-66
2022/05/08 05:19:48;;;;;;;11.38;7.18;;;24.20;53.30;;;;;;6285903;27;80474;-62
2022/05/08 05:22:49;;;;;;;11.15;7.10;;;24.10;52.90;;;;;;6285235;27;81554;-61
2022/05/08 05:25:49;;;;;;;8.98;5.55;;;24.20;53.00;;;;;;6270472;27;80913;-62
2022/05/08 05:28:51;;;;;;;8.13;5.85;;;24.20;53.40;;;;;;6280843;27;79999;-61
2022/05/08 05:31:52;;;;;;;13.48;5.82;;;24.20;53.30;;;;;;6285146;27;80457;-61
2022/05/08 05:34:52;;;;;;;9.20;6.15;;;24.20;53.50;;;;;;6285676;27;80805;-61
2022/05/08 05:37:53;;;;;;;8.77;5.53;;;24.20;53.40;;;;;;6284835;27;80407;-61
2022/05/08 05:40:53;;;;;;;10.27;6.07;;;24.30;53.70;;;;;;6284793;27;80521;-60
2022/05/08 05:43:54;;;;;;;12.18;6.68;;;24.30;53.70;;;;;;6283765;27;82502;-61
2022/05/08 05:50:14;;;;;;;12.60;5.25;;;24.30;54.10;;;;;;6281231;27;80365;-61
2022/05/08 05:53:15;;;;;;;11.45;5.20;;;24.30;54.20;;;;;;6275287;27;80507;-62
2022/05/08 05:56:15;;;;;;;9.45;4.90;;;24.30;54.30;;;;;;6279330;27;80601;-61
2022/05/08 05:59:16;;;;;;;15.75;5.22;;;24.40;54.40;;;;;;6285190;27;80740;-61
2022/05/08 06:02:16;;;;;;;5.78;4.18;;;24.40;54.60;;;;;;6275201;27;80496;-61
2022/05/08 06:05:17;;;;;;;7.85;4.78;;;24.40;54.60;;;;;;6281886;27;80822;-61
2022/05/08 06:08:18;;;;;;;10.60;5.18;;;24.40;54.90;;;;;;6273102;27;81343;-61
2022/05/08 06:11:19;;;;;;;10.80;5.28;;;24.50;55.10;;;;;;6283781;27;81805;-61
2022/05/08 06:14:20;;;;;;;8.60;5.05;;;24.50;55.00;;;;;;6284938;27;81571;-62
2022/05/08 06:17:20;;;;;;;10.02;4.88;;;24.50;54.90;;;;;;6285047;27;80317;-62
2022/05/08 06:20:20;;;;;;;9.48;5.38;;;24.50;55.30;;;;;;6284761;27;80974;-61
2022/05/08 06:23:21;;;;;;;9.40;5.63;;;24.50;56.00;;;;;;6284759;27;81081;-61
2022/05/08 06:26:22;;;;;;;9.60;5.70;;;24.50;56.10;;;;;;6284129;27;80859;-61
2022/05/08 06:29:22;;;;;;;10.38;4.93;;;24.50;55.60;;;;;;6284725;27;80264;-61
2022/05/08 06:32:23;;;;;;;10.80;4.93;;;24.60;55.70;;;;;;6278528;27;80368;-61
2022/05/08 06:35:23;;;;;;;8.88;5.70;;;24.60;55.50;;;;;;6284384;27;81366;-62
2022/05/08 06:38:24;;;;;;;9.00;4.90;;;24.60;55.60;;;;;;6284166;27;80464;-62
2022/05/08 06:41:25;;;;;;;8.70;5.07;;;24.60;55.50;;;;;;6267092;27;80855;-62
2022/05/08 06:44:25;;;;;;;8.30;4.97;;;24.60;55.90;;;;;;6265294;27;80272;-61
2022/05/08 06:47:26;;;;;;;10.50;5.35;;;24.60;55.90;;;;;;6264918;27;81051;-63
2022/05/08 06:50:29;;;;;;;10.77;5.15;;;24.70;55.00;;;;;;6266788;27;81503;-63
2022/05/08 06:53:29;;;;;;;7.97;4.75;;;24.70;55.00;;;;;;6269759;27;80330;-63
2022/05/08 06:56:34;;;;;;;8.27;5.43;;;24.70;54.80;;;;;;6261144;27;86590;-62
2022/05/08 07:02:54;;;;;;;9.13;5.65;;;24.80;54.70;;;;;;6260761;27;80774;-62
2022/05/08 07:05:57;;;;;;;9.90;5.40;;;24.70;55.00;;;;;;6260517;27;80421;-61
2022/05/08 07:08:57;;;;;;;8.60;5.43;;;24.80;54.80;;;;;;6260462;27;80756;-61
2022/05/08 07:11:58;;;;;;;8.35;5.32;;;24.70;55.00;;;;;;6264147;27;80216;-61
2022/05/08 07:14:59;;;;;;;10.05;5.50;;;24.80;55.00;;;;;;6260151;27;80387;-62
2022/05/08 07:17:59;;;;;;;10.00;5.45;;;24.80;54.70;;;;;;6264338;27;80948;-61
2022/05/08 07:21:01;;;;;;;8.25;5.47;;;24.80;54.60;;;;;;6284027;27;81065;-64
2022/05/08 07:24:02;;;;;;;8.82;5.55;;;24.90;54.60;;;;;;6284672;27;80047;-64
2022/05/08 07:27:02;;;;;;;7.55;5.40;;;24.90;54.50;;;;;;6284286;27;80830;-67
2022/05/08 07:30:03;;;;;;;12.85;6.25;;;24.90;54.20;;;;;;6281453;27;80410;-62
2022/05/08 07:33:03;;;;;;;11.60;6.78;;;24.90;52.90;;;;;;6283173;27;80929;-62
2022/05/08 07:36:13;;;;;;;15.80;6.70;;;24.90;53.60;;;;;;6283869;27;80907;-62
2022/05/08 07:39:13;;;;;;;15.52;6.35;;;25.00;53.10;;;;;;6279863;27;84772;-63
2022/05/08 07:42:14;;;;;;;10.77;6.60;;;25.00;53.00;;;;;;6264160;27;80459;-62
2022/05/08 07:45:15;;;;;;;13.00;7.93;;;25.00;51.50;;;;;;6281878;27;81481;-62
2022/05/08 07:48:16;;;;;;;14.15;7.63;;;24.20;50.20;;;;;;6282992;27;81312;-66
2022/05/08 07:51:16;;;;;;;11.25;7.65;;;23.70;50.50;;;;;;6274719;27;81677;-64
2022/05/08 07:54:17;;;;;;;13.27;7.88;;;23.50;51.10;;;;;;6269435;27;80306;-64
2022/05/08 07:57:18;;;;;;;9.88;6.88;;;23.70;50.70;;;;;;6262937;27;80253;-65
2022/05/08 08:00:18;;;;;;;12.13;6.65;;;23.90;51.10;;;;;;6283410;27;80887;-64
2022/05/08 08:03:19;;;;;;;13.38;7.55;;;23.60;50.10;;;;;;6281435;27;80189;-66
2022/05/08 08:06:20;;;;;;;12.48;6.70;;;23.50;50.50;;;;;;6281085;27;81726;-63
2022/05/08 08:09:20;;;;;;;13.68;6.43;;;23.60;50.20;;;;;;6257399;27;81562;-63
2022/05/08 08:12:22;;;;;;;10.25;6.38;;;23.50;49.70;;;;;;6260365;27;80600;-62
2022/05/08 08:15:23;;;;;;;7.65;5.90;;;23.40;50.20;;;;;;6264248;27;80316;-64
2022/05/08 08:18:23;;;;;;;9.43;6.20;;;23.60;50.10;;;;;;6266690;27;80440;-62
2022/05/08 08:21:24;;;;;;;14.30;6.72;;;23.50;50.00;;;;;;6263481;27;80636;-63
2022/05/08 08:24:24;;;;;;;9.68;6.22;;;23.60;49.90;;;;;;6274073;27;80856;-59
2022/05/08 08:27:25;;;;;;;11.55;6.50;;;23.40;48.80;;;;;;6270442;27;81599;-61
2022/05/08 08:30:25;;;;;;;13.38;7.15;;;23.20;49.40;;;;;;6274282;27;81128;-65
2022/05/08 08:33:26;;;;;;;8.98;5.95;;;23.20;50.00;;;;;;6282603;27;81989;-64
2022/05/08 08:36:27;;;;;;;11.27;6.38;;;23.10;50.40;;;;;;6282590;27;80426;-63
2022/05/08 08:39:27;;;;;;;10.38;6.15;;;23.10;50.80;;;;;;6270613;27;81346;-64
2022/05/08 08:42:28;;;;;;;11.13;6.68;;;23.20;50.60;;;;;;6280728;27;81534;-70
2022/05/08 08:48:51;;;;;;;10.52;6.82;;;23.10;50.20;;;;;;6281226;27;81989;-62
2022/05/08 08:51:51;;;;;;;9.02;6.13;;;23.10;51.00;;;;;;6286580;27;80507;-62
2022/05/08 08:54:52;;;;;;;9.00;6.28;;;23.20;51.10;;;;;;6277243;27;80607;-63
2022/05/08 08:57:52;;;;;;;11.02;6.00;;;23.20;50.40;;;;;;6278256;27;80740;-63
2022/05/08 09:00:53;;;;;;;10.77;6.28;;;23.20;50.40;;;;;;6283791;27;83526;-63
2022/05/08 09:03:55;;;;;;;10.82;6.25;;;23.20;50.60;;;;;;6286874;27;81418;-63
2022/05/08 09:06:58;;;;;;;7.53;5.78;;;23.50;51.60;;;;;;6281324;27;82719;-62
2022/05/08 09:09:58;;;;;;;10.38;7.10;;;23.70;50.90;;;;;;6277575;27;80053;-63
2022/05/08 09:12:59;;;;;;;8.07;5.47;;;23.70;50.80;;;;;;6284790;27;81927;-63
2022/05/08 09:15:59;;;;;;;9.10;6.28;;;24.00;50.60;;;;;;6286621;27;81338;-63
2022/05/08 09:19:00;;;;;;;11.05;6.28;;;24.20;50.70;;;;;;6279054;27;81850;-63
2022/05/08 09:22:02;;;;;;;10.15;6.68;;;24.40;50.20;;;;;;6278015;27;80475;-63
2022/05/08 09:25:03;;;;;;;10.98;6.90;;;24.20;49.40;;;;;;6279900;27;80410;-62
2022/05/08 09:28:04;;;;;;;11.48;7.38;;;24.40;49.40;;;;;;6286829;27;81588;-63
2022/05/08 09:31:04;;;;;;;13.90;7.13;;;24.50;49.10;;;;;;6280948;27;80461;-65
2022/05/08 09:34:05;;;;;;;10.43;6.70;;;24.30;49.10;;;;;;6261762;27;81278;-64
2022/05/08 09:37:05;;;;;;;8.63;6.38;;;24.10;49.10;;;;;;6263843;27;80414;-67
2022/05/08 09:40:06;;;;;;;8.18;6.38;;;23.90;49.60;;;;;;6261784;27;80667;-65
2022/05/08 09:43:06;;;;;;;8.20;6.22;;;23.70;49.80;;;;;;6264596;27;80934;-63
2022/05/08 09:46:08;;;;;;;16.23;7.50;;;23.70;50.40;;;;;;6272750;27;80867;-66
2022/05/08 09:49:08;;;;;;;14.23;7.53;;;23.90;50.70;;;;;;6283924;27;80619;-67
2022/05/08 09:52:08;;;;;;;13.70;7.47;;;23.90;50.60;;;;;;6275898;27;81391;-67
2022/05/08 09:55:09;;;;;;;19.27;9.77;;;24.10;50.70;;;;;;6286506;27;81564;-66
2022/05/08 09:58:09;;;;;;;16.60;8.73;;;24.30;50.20;;;;;;6286557;27;80729;-68
2022/05/08 10:01:10;;;;;;;13.35;7.28;;;24.30;49.90;;;;;;6285526;27;81693;-66
2022/05/08 10:04:10;;;;;;;8.82;6.70;;;24.10;49.80;;;;;;6285917;27;80609;-67
2022/05/08 10:07:11;;;;;;;11.85;6.80;;;24.00;50.20;;;;;;6286182;27;82882;-68
2022/05/08 10:16:58;;;;;;;8.88;6.63;;;24.30;50.00;;;;;;6286536;27;80468;-67
2022/05/08 10:19:58;;;;;;;11.57;6.68;;;24.30;49.70;;;;;;6285735;27;80278;-63
2022/05/08 10:23:00;;;;;;;12.73;6.60;;;24.30;49.70;;;;;;6285451;27;80245;-65
2022/05/08 10:26:00;;;;;;;9.23;6.10;;;24.30;49.80;;;;;;6285528;27;80589;-63
2022/05/08 10:29:01;;;;;;;7.88;6.03;;;24.10;49.80;;;;;;6285372;27;80452;-66
2022/05/08 10:32:02;;;;;;;8.88;6.88;;;24.30;49.80;;;;;;6286137;27;80574;-64
2022/05/08 10:35:02;;;;;;;10.23;6.68;;;24.20;49.90;;;;;;6285662;27;80395;-63
2022/05/08 10:38:03;;;;;;;14.52;6.32;;;24.30;49.70;;;;;;6280501;27;83114;-63
2022/05/08 10:41:03;;;;;;;10.15;5.90;;;24.40;49.80;;;;;;6285453;27;80228;-66
2022/05/08 10:44:04;;;;;;;10.70;6.80;;;24.60;49.80;;;;;;6285379;27;81579;-63
2022/05/08 10:47:04;;;;;;;9.85;5.85;;;24.60;49.50;;;;;;6285737;27;80203;-68
2022/05/08 10:50:05;;;;;;;9.77;6.38;;;24.70;50.00;;;;;;6285323;27;80274;-63
2022/05/08 10:53:06;;;;;;;11.48;6.57;;;24.80;50.10;;;;;;6273501;27;80341;-62
2022/05/08 10:56:06;;;;;;;8.18;6.22;;;24.90;50.00;;;;;;6275296;27;80490;-63
2022/05/08 10:59:07;;;;;;;9.73;6.72;;;24.90;48.80;;;;;;6285151;27;80592;-63
2022/05/08 11:02:07;;;;;;;9.90;5.32;;;25.00;48.10;;;;;;6279491;27;80288;-62
2022/05/08 11:05:08;;;;;;;9.38;6.13;;;25.00;48.40;;;;;;6283871;27;81951;-62
2022/05/08 11:08:10;;;;;;;11.23;7.68;;;25.00;47.70;;;;;;6281010;27;81318;-70
2022/05/08 11:11:11;;;;;;;9.75;6.68;;;25.00;47.20;;;;;;6283928;27;80749;-63
2022/05/08 11:14:12;;;;;;;10.52;6.53;;;25.00;47.60;;;;;;6282402;27;80270;-63
2022/05/08 11:17:13;;;;;;;11.55;6.07;;;25.00;46.30;;;;;;6282686;27;81454;-63
2022/05/08 11:20:13;;;;;;;8.82;6.45;;;24.90;45.20;;;;;;6277269;27;81705;-63
2022/05/08 11:23:14;;;;;;;15.70;6.78;;;24.90;45.60;;;;;;6266490;27;80667;-63
2022/05/08 11:26:14;;;;;;;9.15;6.03;;;24.80;45.80;;;;;;6283170;27;80872;-63
2022/05/08 11:29:15;;;;;;;8.88;5.70;;;24.90;46.30;;;;;;6262794;27;81785;-64
2022/05/08 11:38:54;;;;;;;11.55;5.60;;;24.90;46.50;;;;;;6259861;27;80483;-64
2022/05/08 11:41:55;;;;;;;7.85;5.63;;;24.90;45.60;;;;;;6260678;27;80420;-64
2022/05/08 11:44:55;;;;;;;6.10;4.90;;;24.60;46.00;;;;;;6266324;27;80218;-64
2022/05/08 11:47:56;;;;;;;8.43;5.80;;;24.70;46.40;;;;;;6266933;27;81916;-64
2022/05/08 11:50:56;;;;;;;10.02;5.40;;;24.60;45.90;;;;;;6259695;27;80484;-66
2022/05/08 11:53:57;;;;;;;8.60;5.40;;;24.60;45.90;;;;;;6268090;27;80763;-65
2022/05/08 11:56:58;;;;;;;10.07;4.95;;;24.60;46.00;;;;;;6266556;27;82164;-64
2022/05/08 11:59:58;;;;;;;8.73;5.45;;;24.70;45.80;;;;;;6263998;27;80217;-63
2022/05/08 12:03:01;;;;;;;5.75;4.80;;;24.70;46.20;;;;;;6265248;27;82039;-65
2022/05/08 12:06:01;;;;;;;8.48;5.55;;;24.80;45.90;;;;;;6263135;27;80279;-64
2022/05/08 12:09:02;;;;;;;11.80;5.13;;;24.80;45.60;;;;;;6262307;27;80480;-64
2022/05/08 12:12:04;;;;;;;6.65;5.32;;;24.90;46.10;;;;;;6263307;27;80406;-64
2022/05/08 12:15:06;;;;;;;7.07;4.95;;;24.90;45.60;;;;;;6282650;27;81104;-64
2022/05/08 12:18:06;;;;;;;10.93;5.80;;;24.90;45.40;;;;;;6272127;27;80453;-64
2022/05/08 12:21:07;;;;;;;10.32;5.25;;;24.90;45.90;;;;;;6277895;27;80386;-62
2022/05/08 12:24:07;;;;;;;9.82;5.13;;;25.00;46.10;;;;;;6285435;27;81594;-63
2022/05/08 12:27:08;;;;;;;8.55;4.95;;;25.00;45.70;;;;;;6289106;27;80313;-63
2022/05/08 12:30:10;;;;;;;7.90;5.72;;;25.00;45.20;;;;;;6292278;27;80616;-61
2022/05/08 12:33:12;;;;;;;7.07;5.25;;;24.70;44.80;;;;;;6286368;27;84811;-64
2022/05/08 12:36:13;;;;;;;7.50;5.45;;;24.80;45.30;;;;;;6274163;27;80320;-64
2022/05/08 12:39:13;;;;;;;9.23;5.80;;;24.60;46.60;;;;;;6281305;27;81513;-64
2022/05/08 12:42:14;;;;;;;10.65;5.07;;;24.40;48.60;;;;;;6292364;27;80474;-64
2022/05/08 12:45:14;;;;;;;8.23;4.18;;;23.60;50.20;;;;;;6291784;27;80611;-65
2022/05/08 12:48:19;;;;;;;13.32;4.15;;;22.60;48.60;;;;;;6291835;27;80340;-68
2022/05/08 12:51:20;;;;;;;6.77;3.50;;;22.60;49.80;;;;;;6291468;27;81142;-65
2022/05/08 12:54:24;;;;;;;6.32;3.50;;;23.00;48.40;;;;;;6291657;27;80274;-65
2022/05/08 13:00:43;;;;;;;17.90;3.47;;;23.60;46.90;;;;;;6283884;27;83468;-65
2022/05/08 13:03:44;;;;;;;5.43;3.00;;;23.70;46.40;;;;;;6291305;27;80405;-64
2022/05/08 13:06:45;;;;;;;5.43;3.22;;;23.90;46.20;;;;;;6291365;27;80246;-64
2022/05/08 13:09:45;;;;;;;5.20;3.58;;;24.00;46.30;;;;;;6289747;27;83300;-64
2022/05/08 13:12:46;;;;;;;4.90;2.88;;;24.10;46.40;;;;;;6291309;27;80441;-63
2022/05/08 13:15:46;;;;;;;5.72;3.03;;;24.10;46.40;;;;;;6281636;27;82304;-65
2022/05/08 13:18:47;;;;;;;6.07;3.45;;;24.30;47.20;;;;;;6270085;27;80372;-66
2022/05/08 13:21:49;;;;;;;6.72;3.42;;;24.30;46.80;;;;;;6269398;27;80206;-66
2022/05/08 13:24:50;;;;;;;6.35;2.92;;;24.40;47.00;;;;;;6277483;27;80480;-64
2022/05/08 13:27:50;;;;;;;11.43;3.72;;;24.40;47.20;;;;;;6270140;27;80519;-64
2022/05/08 13:30:51;;;;;;;9.63;3.38;;;24.50;47.60;;;;;;6281477;27;82069;-63
2022/05/08 13:33:52;;;;;;;3.17;2.60;;;24.60;47.50;;;;;;6290883;27;82028;-64
2022/05/08 13:36:53;;;;;;;8.80;3.63;;;24.60;47.80;;;;;;6287343;27;87405;-63
2022/05/08 13:39:53;;;;;;;10.77;4.07;;;24.60;47.80;;;;;;6275874;27;80436;-64
2022/05/08 13:42:56;;;;;;;6.60;3.30;;;24.70;48.40;;;;;;6271581;27;80352;-64
2022/05/08 13:45:56;;;;;;;5.30;3.67;;;24.70;48.80;;;;;;6274308;27;80498;-65
2022/05/08 13:48:57;;;;;;;6.63;3.88;;;24.70;48.70;;;;;;6281570;27;80807;-64
2022/05/08 13:51:57;;;;;;;8.07;3.60;;;24.70;48.60;;;;;;6263818;27;80755;-65
2022/05/08 13:54:58;;;;;;;8.27;3.47;;;24.80;48.70;;;;;;6277711;27;80674;-64
2022/05/08 13:57:58;;;;;;;6.00;3.38;;;24.80;47.80;;;;;;6275297;27;80628;-63
2022/05/08 14:00:59;;;;;;;3.83;3.00;;;24.80;47.50;;;;;;6266751;27;81437;-67
2022/05/08 14:03:59;;;;;;;7.47;3.38;;;24.80;46.70;;;;;;6283033;27;81442;-67
2022/05/08 14:07:06;;;;;;;6.95;3.55;;;24.90;46.50;;;;;;6269297;27;80533;-67
2022/05/08 14:10:10;;;;;;;3.45;2.75;;;24.90;45.80;;;;;;6267312;27;80851;-68
2022/05/08 14:13:11;;;;;;;6.57;3.50;;;24.90;45.30;;;;;;6271801;27;80628;-67
2022/05/08 14:16:11;;;;;;;5.90;2.53;;;24.90;45.20;;;;;;6264955;27;83191;-68
2022/05/08 14:19:12;;;;;;;3.25;2.92;;;24.90;45.10;;;;;;6269577;27;80718;-67
2022/05/08 14:22:13;;;;;;;3.55;2.85;;;25.00;44.90;;;;;;6262748;27;80835;-67
2022/05/08 14:25:14;;;;;;;7.60;3.28;;;25.00;44.70;;;;;;6272549;27;81117;-67
2022/05/08 14:28:15;;;;;;;4.75;3.08;;;25.00;43.80;;;;;;6262711;27;81584;-64
2022/05/08 14:37:54;;;;;;;4.75;2.67;;;25.00;42.60;;;;;;6280806;27;83174;-67
2022/05/08 14:40:55;;;;;;;5.32;2.97;;;25.00;42.70;;;;;;6285919;27;80515;-65
2022/05/08 14:43:55;;;;;;;3.25;2.80;;;25.00;42.30;;;;;;6268360;27;80640;-66
2022/05/08 14:46:56;;;;;;;5.35;3.05;;;25.00;42.40;;;;;;6272766;27;82654;-65
2022/05/08 14:49:56;;;;;;;4.40;3.08;;;24.90;42.50;;;;;;6285347;27;80523;-65
2022/05/08 14:52:57;;;;;;;4.05;3.22;;;25.00;42.60;;;;;;6284768;27;80604;-63
2022/05/08 14:55:58;;;;;;;4.13;3.17;;;25.00;42.90;;;;;;6284281;27;81399;-66
2022/05/08 14:58:58;;;;;;;3.00;2.70;;;25.00;43.40;;;;;;6280100;27;80522;-62
2022/05/08 15:01:59;;;;;;;4.80;3.35;;;25.00;43.70;;;;;;6277869;27;80778;-65
2022/05/08 15:04:59;;;;;;;6.30;3.20;;;25.00;44.30;;;;;;6283110;27;80184;-63
2022/05/08 15:08:00;;;;;;;4.47;3.42;;;25.00;44.50;;;;;;6284042;27;80580;-65
2022/05/08 15:11:01;;;;;;;4.13;3.65;;;25.00;44.80;;;;;;6276063;27;80559;-64
2022/05/08 15:14:01;;;;;;;6.10;4.43;;;25.00;45.10;;;;;;6283032;27;81491;-63
2022/05/08 15:17:02;;;;;;;7.50;3.85;;;25.00;45.30;;;;;;6283147;27;80098;-62
2022/05/08 15:20:02;;;;;;;5.13;3.55;;;25.00;45.30;;;;;;6260263;27;80925;-63
2022/05/08 15:23:03;;;;;;;6.82;3.28;;;25.00;45.50;;;;;;6270124;27;80488;-63
2022/05/08 15:26:03;;;;;;;5.55;3.92;;;25.00;45.40;;;;;;6277004;27;80457;-66
2022/05/08 15:29:04;;;;;;;7.10;3.83;;;25.10;45.50;;;;;;6280336;27;81543;-62
2022/05/08 15:32:09;;;;;;;4.30;3.65;;;25.00;46.10;;;;;;6279503;27;80991;-62
2022/05/08 15:35:10;;;;;;;6.65;3.75;;;25.00;46.60;;;;;;6284059;27;80976;-69
2022/05/08 15:38:10;;;;;;;4.53;3.88;;;25.00;46.80;;;;;;6284008;27;81358;-62
2022/05/08 15:41:11;;;;;;;6.43;4.00;;;25.00;46.70;;;;;;6283881;27;81114;-61
2022/05/08 15:44:12;;;;;;;8.35;3.67;;;25.00;46.70;;;;;;6264753;27;80274;-62
2022/05/08 15:47:13;;;;;;;7.00;4.28;;;25.00;46.60;;;;;;6279959;27;80860;-61
2022/05/08 15:50:14;;;;;;;8.20;4.30;;;25.00;46.70;;;;;;6284052;27;80339;-67
2022/05/08 15:53:15;;;;;;;8.27;3.92;;;25.00;47.00;;;;;;6264504;27;83629;-64
2022/05/08 15:56:18;;;;;;;14.45;4.30;;;25.00;47.10;;;;;;6280188;27;80548;-65
2022/05/08 15:59:18;;;;;;;5.32;3.85;;;25.00;47.20;;;;;;6280269;27;81488;-64
2022/05/08 16:02:19;;;;;;;8.55;4.72;;;25.00;47.40;;;;;;6259225;27;81144;-65
2022/05/08 16:05:19;;;;;;;6.60;4.45;;;25.00;47.50;;;;;;6276930;27;80726;-61
2022/05/08 16:08:19;;;;;;;8.15;4.72;;;25.00;47.50;;;;;;6283721;27;80528;-65
2022/05/08 16:11:20;;;;;;;8.20;4.75;;;24.90;49.00;;;;;;6283471;27;80492;-68
2022/05/08 16:24:23;;;;;;;7.78;4.50;;;24.90;49.70;;;;;;6276294;27;84811;-63
2022/05/08 16:27:24;;;;;;;8.40;4.78;;;24.90;49.90;;;;;;6272392;27;80165;-64